sensor_id;sensor_type;location;lat;lon;timestamp;P1;durP1;ratioP1;P2;durP2;ratioP2
13303;SDS011;6720;51.958;4.540;2022-11-09T00:00:32;6.77;;;3.10;;
13303;SDS011;6720;51.958;4.540;2022-11-09T00:02:58;8.63;;;3.07;;
13303;SDS011;6720;51.958;4.540;2022-11-09T00:05:23;12.47;;;3.47;;
13303;SDS011;6720;51.958;4.540;2022-11-09T00:07:48;10.17;;;3.87;;
13303;SDS011;6720;51.958;4.540;2022-11-09T00:10:14;10.33;;;3.37;;
13303;SDS011;6720;51.958;4.540;2022-11-09T00:12:39;6.97;;;3.00;;
13303;SDS011;6720;51.958;4.540;2022-11-09T00:15:05;9.90;;;3.60;;
13303;SDS011;6720;51.958;4.540;2022-11-09T00:17:30;14.40;;;5.17;;
13303;SDS011;6720;51.958;4.540;2022-11-09T00:19:56;9.27;;;4.10;;
13303;SDS011;6720;51.958;4.540;2022-11-09T00:22:21;8.90;;;3.83;;
13303;SDS011;6720;51.958;4.540;2022-11-09T00:24:46;11.37;;;3.50;;
13303;SDS011;6720;51.958;4.540;2022-11-09T00:27:12;11.13;;;3.13;;
13303;SDS011;6720;51.958;4.540;2022-11-09T00:29:37;12.17;;;4.20;;
13303;SDS011;6720;51.958;4.540;2022-11-09T00:32:02;12.30;;;4.30;;
13303;SDS011;6720;51.958;4.540;2022-11-09T00:34:28;11.67;;;3.30;;
13303;SDS011;6720;51.958;4.540;2022-11-09T00:36:53;11.50;;;3.60;;
13303;SDS011;6720;51.958;4.540;2022-11-09T00:39:18;10.00;;;3.13;;
13303;SDS011;6720;51.958;4.540;2022-11-09T00:41:44;8.57;;;3.00;;
13303;SDS011;6720;51.958;4.540;2022-11-09T00:44:09;6.13;;;2.90;;
13303;SDS011;6720;51.958;4.540;2022-11-09T00:46:34;9.17;;;3.50;;
13303;SDS011;6720;51.958;4.540;2022-11-09T00:49:06;10.93;;;4.20;;
13303;SDS011;6720;51.958;4.540;2022-11-09T00:52:07;10.27;;;3.47;;
13303;SDS011;6720;51.958;4.540;2022-11-09T00:54:32;11.97;;;4.10;;
13303;SDS011;6720;51.958;4.540;2022-11-09T00:57:04;7.97;;;2.90;;
13303;SDS011;6720;51.958;4.540;2022-11-09T00:59:43;8.73;;;3.40;;
13303;SDS011;6720;51.958;4.540;2022-11-09T01:02:08;9.47;;;2.80;;
13303;SDS011;6720;51.958;4.540;2022-11-09T01:04:34;9.60;;;4.33;;
13303;SDS011;6720;51.958;4.540;2022-11-09T01:06:59;9.03;;;3.00;;
13303;SDS011;6720;51.958;4.540;2022-11-09T01:09:25;8.00;;;3.10;;
13303;SDS011;6720;51.958;4.540;2022-11-09T01:12:00;9.53;;;3.30;;
13303;SDS011;6720;51.958;4.540;2022-11-09T01:14:30;9.10;;;3.53;;
13303;SDS011;6720;51.958;4.540;2022-11-09T01:16:56;10.00;;;3.30;;
13303;SDS011;6720;51.958;4.540;2022-11-09T01:19:21;7.00;;;2.93;;
13303;SDS011;6720;51.958;4.540;2022-11-09T01:21:46;12.57;;;3.90;;
13303;SDS011;6720;51.958;4.540;2022-11-09T01:24:12;6.07;;;2.80;;
13303;SDS011;6720;51.958;4.540;2022-11-09T01:26:40;12.27;;;4.07;;
13303;SDS011;6720;51.958;4.540;2022-11-09T01:29:05;13.67;;;3.70;;
13303;SDS011;6720;51.958;4.540;2022-11-09T01:31:31;11.50;;;3.50;;
13303;SDS011;6720;51.958;4.540;2022-11-09T01:33:56;10.33;;;3.80;;
13303;SDS011;6720;51.958;4.540;2022-11-09T01:36:22;7.33;;;3.13;;
13303;SDS011;6720;51.958;4.540;2022-11-09T01:38:48;13.53;;;4.07;;
13303;SDS011;6720;51.958;4.540;2022-11-09T01:41:19;12.93;;;3.77;;
13303;SDS011;6720;51.958;4.540;2022-11-09T01:44:07;9.63;;;3.13;;
13303;SDS011;6720;51.958;4.540;2022-11-09T01:52:09;13.80;;;4.00;;
13303;SDS011;6720;51.958;4.540;2022-11-09T01:54:41;7.00;;;3.07;;
13303;SDS011;6720;51.958;4.540;2022-11-09T01:57:12;9.13;;;3.83;;
13303;SDS011;6720;51.958;4.540;2022-11-09T01:59:46;13.97;;;4.60;;
13303;SDS011;6720;51.958;4.540;2022-11-09T02:02:15;13.97;;;6.17;;
13303;SDS011;6720;51.958;4.540;2022-11-09T02:04:42;11.43;;;4.03;;
13303;SDS011;6720;51.958;4.540;2022-11-09T02:07:16;13.67;;;4.97;;
13303;SDS011;6720;51.958;4.540;2022-11-09T02:09:44;12.07;;;3.67;;
13303;SDS011;6720;51.958;4.540;2022-11-09T02:12:15;11.50;;;3.80;;
13303;SDS011;6720;51.958;4.540;2022-11-09T02:14:42;10.83;;;4.10;;
13303;SDS011;6720;51.958;4.540;2022-11-09T02:17:08;10.73;;;3.53;;
13303;SDS011;6720;51.958;4.540;2022-11-09T02:19:36;12.57;;;3.77;;
13303;SDS011;6720;51.958;4.540;2022-11-09T02:22:01;14.00;;;4.73;;
13303;SDS011;6720;51.958;4.540;2022-11-09T02:24:26;14.30;;;5.50;;
13303;SDS011;6720;51.958;4.540;2022-11-09T02:26:52;11.53;;;3.70;;
13303;SDS011;6720;51.958;4.540;2022-11-09T02:29:19;14.27;;;3.73;;
13303;SDS011;6720;51.958;4.540;2022-11-09T02:31:48;8.80;;;3.27;;
13303;SDS011;6720;51.958;4.540;2022-11-09T02:34:18;13.00;;;4.13;;
13303;SDS011;6720;51.958;4.540;2022-11-09T02:36:44;11.70;;;3.80;;
13303;SDS011;6720;51.958;4.540;2022-11-09T02:39:10;11.40;;;3.57;;
13303;SDS011;6720;51.958;4.540;2022-11-09T02:41:40;9.80;;;3.20;;
13303;SDS011;6720;51.958;4.540;2022-11-09T02:44:10;9.83;;;4.17;;
13303;SDS011;6720;51.958;4.540;2022-11-09T02:46:36;8.57;;;4.37;;
13303;SDS011;6720;51.958;4.540;2022-11-09T02:49:02;8.77;;;3.23;;
13303;SDS011;6720;51.958;4.540;2022-11-09T02:51:28;12.03;;;3.37;;
13303;SDS011;6720;51.958;4.540;2022-11-09T02:53:53;9.17;;;3.60;;
13303;SDS011;6720;51.958;4.540;2022-11-09T02:56:19;8.93;;;3.50;;
13303;SDS011;6720;51.958;4.540;2022-11-09T02:58:44;11.17;;;3.80;;
13303;SDS011;6720;51.958;4.540;2022-11-09T03:01:09;8.57;;;3.80;;
13303;SDS011;6720;51.958;4.540;2022-11-09T03:03:35;11.43;;;3.60;;
13303;SDS011;6720;51.958;4.540;2022-11-09T03:06:00;9.30;;;3.87;;
13303;SDS011;6720;51.958;4.540;2022-11-09T03:08:26;13.23;;;4.43;;
13303;SDS011;6720;51.958;4.540;2022-11-09T03:10:51;10.97;;;3.77;;
13303;SDS011;6720;51.958;4.540;2022-11-09T03:13:17;8.87;;;3.47;;
13303;SDS011;6720;51.958;4.540;2022-11-09T03:15:42;8.27;;;3.40;;
13303;SDS011;6720;51.958;4.540;2022-11-09T03:18:07;10.47;;;3.47;;
13303;SDS011;6720;51.958;4.540;2022-11-09T03:20:33;11.27;;;3.47;;
13303;SDS011;6720;51.958;4.540;2022-11-09T03:22:58;9.00;;;3.70;;
13303;SDS011;6720;51.958;4.540;2022-11-09T03:25:24;8.40;;;4.13;;
13303;SDS011;6720;51.958;4.540;2022-11-09T03:27:55;14.97;;;4.43;;
13303;SDS011;6720;51.958;4.540;2022-11-09T03:30:24;8.87;;;3.63;;
13303;SDS011;6720;51.958;4.540;2022-11-09T03:32:50;7.93;;;3.20;;
13303;SDS011;6720;51.958;4.540;2022-11-09T03:35:15;11.10;;;3.63;;
13303;SDS011;6720;51.958;4.540;2022-11-09T03:37:40;15.10;;;6.27;;
13303;SDS011;6720;51.958;4.540;2022-11-09T03:40:06;7.73;;;3.17;;
13303;SDS011;6720;51.958;4.540;2022-11-09T03:42:32;8.47;;;3.20;;
13303;SDS011;6720;51.958;4.540;2022-11-09T03:44:57;11.50;;;4.60;;
13303;SDS011;6720;51.958;4.540;2022-11-09T03:47:22;8.03;;;3.77;;
13303;SDS011;6720;51.958;4.540;2022-11-09T03:49:48;11.60;;;3.80;;
13303;SDS011;6720;51.958;4.540;2022-11-09T03:52:13;7.27;;;3.20;;
13303;SDS011;6720;51.958;4.540;2022-11-09T03:54:39;9.83;;;3.70;;
13303;SDS011;6720;51.958;4.540;2022-11-09T03:57:04;8.43;;;3.50;;
13303;SDS011;6720;51.958;4.540;2022-11-09T03:59:29;11.33;;;4.67;;
13303;SDS011;6720;51.958;4.540;2022-11-09T04:01:56;7.77;;;3.57;;
13303;SDS011;6720;51.958;4.540;2022-11-09T04:04:21;10.43;;;3.23;;
13303;SDS011;6720;51.958;4.540;2022-11-09T04:06:46;9.10;;;3.90;;
13303;SDS011;6720;51.958;4.540;2022-11-09T04:09:12;10.33;;;3.60;;
13303;SDS011;6720;51.958;4.540;2022-11-09T04:11:37;9.10;;;3.20;;
13303;SDS011;6720;51.958;4.540;2022-11-09T04:14:02;9.97;;;3.53;;
13303;SDS011;6720;51.958;4.540;2022-11-09T04:16:28;12.13;;;3.37;;
13303;SDS011;6720;51.958;4.540;2022-11-09T04:18:53;12.70;;;4.17;;
13303;SDS011;6720;51.958;4.540;2022-11-09T04:21:18;8.37;;;2.93;;
13303;SDS011;6720;51.958;4.540;2022-11-09T04:23:44;10.30;;;3.43;;
13303;SDS011;6720;51.958;4.540;2022-11-09T04:26:12;13.57;;;5.47;;
13303;SDS011;6720;51.958;4.540;2022-11-09T04:28:37;8.93;;;3.10;;
13303;SDS011;6720;51.958;4.540;2022-11-09T04:31:02;9.90;;;3.47;;
13303;SDS011;6720;51.958;4.540;2022-11-09T04:33:28;9.80;;;3.10;;
13303;SDS011;6720;51.958;4.540;2022-11-09T04:35:53;7.80;;;3.27;;
13303;SDS011;6720;51.958;4.540;2022-11-09T04:38:19;12.53;;;4.03;;
13303;SDS011;6720;51.958;4.540;2022-11-09T04:40:44;7.77;;;2.53;;
13303;SDS011;6720;51.958;4.540;2022-11-09T04:43:12;10.93;;;3.47;;
13303;SDS011;6720;51.958;4.540;2022-11-09T04:45:38;10.70;;;3.17;;
13303;SDS011;6720;51.958;4.540;2022-11-09T04:48:04;6.57;;;2.80;;
13303;SDS011;6720;51.958;4.540;2022-11-09T04:50:31;10.27;;;3.83;;
13303;SDS011;6720;51.958;4.540;2022-11-09T04:53:18;9.03;;;4.00;;
13303;SDS011;6720;51.958;4.540;2022-11-09T04:55:43;13.43;;;5.17;;
13303;SDS011;6720;51.958;4.540;2022-11-09T04:58:09;10.80;;;3.43;;
13303;SDS011;6720;51.958;4.540;2022-11-09T05:00:35;8.17;;;3.57;;
13303;SDS011;6720;51.958;4.540;2022-11-09T05:03:01;12.47;;;3.67;;
13303;SDS011;6720;51.958;4.540;2022-11-09T05:05:28;10.57;;;3.67;;
13303;SDS011;6720;51.958;4.540;2022-11-09T05:07:54;12.07;;;3.83;;
13303;SDS011;6720;51.958;4.540;2022-11-09T05:10:19;12.07;;;3.70;;
13303;SDS011;6720;51.958;4.540;2022-11-09T05:12:45;11.53;;;4.27;;
13303;SDS011;6720;51.958;4.540;2022-11-09T05:15:10;9.33;;;3.20;;
13303;SDS011;6720;51.958;4.540;2022-11-09T05:17:35;10.67;;;4.17;;
13303;SDS011;6720;51.958;4.540;2022-11-09T05:20:01;10.43;;;3.80;;
13303;SDS011;6720;51.958;4.540;2022-11-09T05:22:37;12.57;;;4.33;;
13303;SDS011;6720;51.958;4.540;2022-11-09T05:25:46;9.83;;;3.33;;
13303;SDS011;6720;51.958;4.540;2022-11-09T05:28:43;9.00;;;4.50;;
13303;SDS011;6720;51.958;4.540;2022-11-09T05:31:35;10.53;;;3.43;;
13303;SDS011;6720;51.958;4.540;2022-11-09T05:34:34;9.03;;;3.00;;
13303;SDS011;6720;51.958;4.540;2022-11-09T05:37:37;11.07;;;3.33;;
13303;SDS011;6720;51.958;4.540;2022-11-09T05:40:36;10.37;;;3.23;;
13303;SDS011;6720;51.958;4.540;2022-11-09T05:43:35;8.27;;;3.53;;
13303;SDS011;6720;51.958;4.540;2022-11-09T06:03:27;13.27;;;4.33;;
13303;SDS011;6720;51.958;4.540;2022-11-09T06:05:53;17.00;;;5.67;;
13303;SDS011;6720;51.958;4.540;2022-11-09T06:08:18;10.13;;;3.97;;
13303;SDS011;6720;51.958;4.540;2022-11-09T06:10:43;10.77;;;3.73;;
13303;SDS011;6720;51.958;4.540;2022-11-09T06:13:09;9.43;;;3.40;;
13303;SDS011;6720;51.958;4.540;2022-11-09T06:15:35;12.07;;;3.97;;
13303;SDS011;6720;51.958;4.540;2022-11-09T06:18:00;9.90;;;3.87;;
13303;SDS011;6720;51.958;4.540;2022-11-09T06:20:26;9.80;;;3.83;;
13303;SDS011;6720;51.958;4.540;2022-11-09T06:22:53;10.47;;;3.67;;
13303;SDS011;6720;51.958;4.540;2022-11-09T06:25:22;13.57;;;4.03;;
13303;SDS011;6720;51.958;4.540;2022-11-09T06:27:48;9.30;;;3.30;;
13303;SDS011;6720;51.958;4.540;2022-11-09T06:30:14;9.90;;;3.50;;
13303;SDS011;6720;51.958;4.540;2022-11-09T06:32:40;11.07;;;4.10;;
13303;SDS011;6720;51.958;4.540;2022-11-09T06:35:06;9.10;;;3.60;;
13303;SDS011;6720;51.958;4.540;2022-11-09T06:37:32;13.60;;;4.27;;
13303;SDS011;6720;51.958;4.540;2022-11-09T06:39:57;11.87;;;3.73;;
13303;SDS011;6720;51.958;4.540;2022-11-09T06:42:22;11.43;;;4.03;;
13303;SDS011;6720;51.958;4.540;2022-11-09T06:44:48;10.00;;;4.13;;
13303;SDS011;6720;51.958;4.540;2022-11-09T06:47:13;15.60;;;4.00;;
13303;SDS011;6720;51.958;4.540;2022-11-09T06:49:39;12.73;;;3.70;;
13303;SDS011;6720;51.958;4.540;2022-11-09T06:52:04;13.03;;;3.83;;
13303;SDS011;6720;51.958;4.540;2022-11-09T06:54:30;13.70;;;5.07;;
13303;SDS011;6720;51.958;4.540;2022-11-09T06:56:56;11.97;;;3.30;;
13303;SDS011;6720;51.958;4.540;2022-11-09T06:59:21;11.73;;;3.30;;
13303;SDS011;6720;51.958;4.540;2022-11-09T07:01:47;10.47;;;3.33;;
13303;SDS011;6720;51.958;4.540;2022-11-09T07:04:13;10.83;;;3.43;;
13303;SDS011;6720;51.958;4.540;2022-11-09T07:06:39;10.30;;;3.67;;
13303;SDS011;6720;51.958;4.540;2022-11-09T07:09:05;10.23;;;3.20;;
13303;SDS011;6720;51.958;4.540;2022-11-09T07:11:31;14.33;;;3.63;;
13303;SDS011;6720;51.958;4.540;2022-11-09T07:13:56;10.73;;;3.40;;
13303;SDS011;6720;51.958;4.540;2022-11-09T07:16:21;11.50;;;3.90;;
13303;SDS011;6720;51.958;4.540;2022-11-09T07:18:47;13.00;;;4.10;;
13303;SDS011;6720;51.958;4.540;2022-11-09T07:21:12;11.67;;;4.20;;
13303;SDS011;6720;51.958;4.540;2022-11-09T07:23:38;11.27;;;3.73;;
13303;SDS011;6720;51.958;4.540;2022-11-09T07:26:03;11.70;;;3.43;;
13303;SDS011;6720;51.958;4.540;2022-11-09T07:28:29;8.27;;;3.33;;
13303;SDS011;6720;51.958;4.540;2022-11-09T07:30:56;10.73;;;3.97;;
13303;SDS011;6720;51.958;4.540;2022-11-09T07:33:22;13.03;;;3.20;;
13303;SDS011;6720;51.958;4.540;2022-11-09T07:35:49;14.40;;;4.10;;
13303;SDS011;6720;51.958;4.540;2022-11-09T07:38:14;10.57;;;4.50;;
13303;SDS011;6720;51.958;4.540;2022-11-09T07:40:40;12.27;;;4.17;;
13303;SDS011;6720;51.958;4.540;2022-11-09T07:43:06;12.03;;;3.57;;
13303;SDS011;6720;51.958;4.540;2022-11-09T07:45:32;11.40;;;4.00;;
13303;SDS011;6720;51.958;4.540;2022-11-09T07:48:00;11.73;;;3.87;;
13303;SDS011;6720;51.958;4.540;2022-11-09T07:50:27;9.90;;;3.57;;
13303;SDS011;6720;51.958;4.540;2022-11-09T07:52:54;10.90;;;3.63;;
13303;SDS011;6720;51.958;4.540;2022-11-09T07:55:20;9.60;;;3.40;;
13303;SDS011;6720;51.958;4.540;2022-11-09T07:57:46;10.87;;;3.97;;
13303;SDS011;6720;51.958;4.540;2022-11-09T08:00:11;12.90;;;3.57;;
13303;SDS011;6720;51.958;4.540;2022-11-09T08:02:37;9.70;;;3.80;;
13303;SDS011;6720;51.958;4.540;2022-11-09T08:05:02;9.67;;;3.67;;
13303;SDS011;6720;51.958;4.540;2022-11-09T08:07:28;9.23;;;3.83;;
13303;SDS011;6720;51.958;4.540;2022-11-09T08:09:53;12.97;;;4.00;;
13303;SDS011;6720;51.958;4.540;2022-11-09T08:12:19;10.90;;;4.00;;
13303;SDS011;6720;51.958;4.540;2022-11-09T08:14:44;13.20;;;3.63;;
13303;SDS011;6720;51.958;4.540;2022-11-09T08:17:10;10.93;;;4.00;;
13303;SDS011;6720;51.958;4.540;2022-11-09T08:19:35;8.50;;;3.60;;
13303;SDS011;6720;51.958;4.540;2022-11-09T08:22:01;10.10;;;3.70;;
13303;SDS011;6720;51.958;4.540;2022-11-09T08:24:26;12.17;;;3.30;;
13303;SDS011;6720;51.958;4.540;2022-11-09T08:26:51;12.33;;;3.60;;
13303;SDS011;6720;51.958;4.540;2022-11-09T08:29:17;12.17;;;3.47;;
13303;SDS011;6720;51.958;4.540;2022-11-09T08:31:42;8.43;;;3.47;;
13303;SDS011;6720;51.958;4.540;2022-11-09T08:34:11;6.90;;;3.33;;
13303;SDS011;6720;51.958;4.540;2022-11-09T08:36:38;13.17;;;3.93;;
13303;SDS011;6720;51.958;4.540;2022-11-09T08:39:03;8.23;;;3.70;;
13303;SDS011;6720;51.958;4.540;2022-11-09T08:41:29;10.17;;;3.13;;
13303;SDS011;6720;51.958;4.540;2022-11-09T08:43:54;10.33;;;4.10;;
13303;SDS011;6720;51.958;4.540;2022-11-09T08:46:20;11.93;;;4.30;;
13303;SDS011;6720;51.958;4.540;2022-11-09T08:48:45;12.90;;;3.90;;
13303;SDS011;6720;51.958;4.540;2022-11-09T08:51:11;10.23;;;3.60;;
13303;SDS011;6720;51.958;4.540;2022-11-09T08:53:36;13.37;;;4.23;;
13303;SDS011;6720;51.958;4.540;2022-11-09T08:56:04;12.77;;;3.80;;
13303;SDS011;6720;51.958;4.540;2022-11-09T08:58:31;11.23;;;3.90;;
13303;SDS011;6720;51.958;4.540;2022-11-09T09:00:56;11.87;;;4.00;;
13303;SDS011;6720;51.958;4.540;2022-11-09T09:03:21;15.87;;;4.63;;
13303;SDS011;6720;51.958;4.540;2022-11-09T09:05:47;10.80;;;3.70;;
13303;SDS011;6720;51.958;4.540;2022-11-09T09:08:12;9.53;;;4.30;;
13303;SDS011;6720;51.958;4.540;2022-11-09T09:10:39;13.53;;;4.13;;
13303;SDS011;6720;51.958;4.540;2022-11-09T09:13:05;10.20;;;3.67;;
13303;SDS011;6720;51.958;4.540;2022-11-09T09:15:31;11.43;;;3.97;;
13303;SDS011;6720;51.958;4.540;2022-11-09T09:18:00;10.40;;;4.17;;
13303;SDS011;6720;51.958;4.540;2022-11-09T09:20:27;12.47;;;3.67;;
13303;SDS011;6720;51.958;4.540;2022-11-09T09:22:53;12.93;;;3.83;;
13303;SDS011;6720;51.958;4.540;2022-11-09T09:25:18;9.33;;;3.60;;
13303;SDS011;6720;51.958;4.540;2022-11-09T09:27:43;12.03;;;3.93;;
13303;SDS011;6720;51.958;4.540;2022-11-09T09:30:09;12.70;;;3.80;;
13303;SDS011;6720;51.958;4.540;2022-11-09T09:32:35;11.33;;;3.50;;
13303;SDS011;6720;51.958;4.540;2022-11-09T09:35:00;11.87;;;4.07;;
13303;SDS011;6720;51.958;4.540;2022-11-09T09:37:26;11.93;;;4.40;;
13303;SDS011;6720;51.958;4.540;2022-11-09T09:39:51;10.27;;;3.83;;
13303;SDS011;6720;51.958;4.540;2022-11-09T09:42:17;11.70;;;4.13;;
13303;SDS011;6720;51.958;4.540;2022-11-09T09:45:20;9.63;;;4.40;;
13303;SDS011;6720;51.958;4.540;2022-11-09T09:47:47;11.27;;;3.83;;
13303;SDS011;6720;51.958;4.540;2022-11-09T09:50:20;11.10;;;3.93;;
13303;SDS011;6720;51.958;4.540;2022-11-09T09:53:30;12.03;;;3.63;;
13303;SDS011;6720;51.958;4.540;2022-11-09T09:55:37;10.03;;;3.53;;
13303;SDS011;6720;51.958;4.540;2022-11-09T09:58:08;10.13;;;3.60;;
13303;SDS011;6720;51.958;4.540;2022-11-09T10:00:36;14.50;;;3.93;;
13303;SDS011;6720;51.958;4.540;2022-11-09T10:03:03;11.87;;;3.73;;
13303;SDS011;6720;51.958;4.540;2022-11-09T10:05:38;12.63;;;3.40;;
13303;SDS011;6720;51.958;4.540;2022-11-09T10:08:30;9.27;;;3.33;;
13303;SDS011;6720;51.958;4.540;2022-11-09T10:25:15;10.63;;;3.57;;
13303;SDS011;6720;51.958;4.540;2022-11-09T10:27:50;13.47;;;3.83;;
13303;SDS011;6720;51.958;4.540;2022-11-09T10:30:19;10.00;;;3.40;;
13303;SDS011;6720;51.958;4.540;2022-11-09T10:32:47;11.93;;;3.23;;
13303;SDS011;6720;51.958;4.540;2022-11-09T10:37:51;9.43;;;3.70;;
13303;SDS011;6720;51.958;4.540;2022-11-09T10:40:37;9.47;;;3.70;;
13303;SDS011;6720;51.958;4.540;2022-11-09T10:43:10;8.93;;;3.40;;
13303;SDS011;6720;51.958;4.540;2022-11-09T10:45:38;9.93;;;3.47;;
13303;SDS011;6720;51.958;4.540;2022-11-09T10:48:06;8.13;;;3.17;;
13303;SDS011;6720;51.958;4.540;2022-11-09T10:50:37;7.50;;;3.50;;
13303;SDS011;6720;51.958;4.540;2022-11-09T10:53:17;10.40;;;3.30;;
13303;SDS011;6720;51.958;4.540;2022-11-09T10:58:31;6.53;;;3.00;;
13303;SDS011;6720;51.958;4.540;2022-11-09T11:01:00;10.63;;;3.10;;
13303;SDS011;6720;51.958;4.540;2022-11-09T11:03:29;10.13;;;3.17;;
13303;SDS011;6720;51.958;4.540;2022-11-09T11:08:40;8.53;;;3.07;;
13303;SDS011;6720;51.958;4.540;2022-11-09T11:11:28;10.60;;;2.93;;
13303;SDS011;6720;51.958;4.540;2022-11-09T11:16:33;7.67;;;3.07;;
13303;SDS011;6720;51.958;4.540;2022-11-09T11:19:00;5.80;;;2.13;;
13303;SDS011;6720;51.958;4.540;2022-11-09T11:21:27;3.90;;;2.10;;
13303;SDS011;6720;51.958;4.540;2022-11-09T11:31:53;3.60;;;1.93;;
13303;SDS011;6720;51.958;4.540;2022-11-09T11:34:18;1.90;;;1.57;;
13303;SDS011;6720;51.958;4.540;2022-11-09T11:37:02;4.13;;;1.93;;
13303;SDS011;6720;51.958;4.540;2022-11-09T11:39:33;3.63;;;1.70;;
13303;SDS011;6720;51.958;4.540;2022-11-09T11:43:05;5.10;;;2.00;;
13303;SDS011;6720;51.958;4.540;2022-11-09T11:45:36;4.53;;;2.13;;
13303;SDS011;6720;51.958;4.540;2022-11-09T11:50:56;3.57;;;2.00;;
13303;SDS011;6720;51.958;4.540;2022-11-09T12:04:47;6.50;;;2.40;;
13303;SDS011;6720;51.958;4.540;2022-11-09T12:29:30;7.30;;;2.67;;
13303;SDS011;6720;51.958;4.540;2022-11-09T12:31:44;7.60;;;2.47;;
13303;SDS011;6720;51.958;4.540;2022-11-09T12:37:22;6.77;;;2.90;;
13303;SDS011;6720;51.958;4.540;2022-11-09T12:39:52;6.63;;;2.30;;
13303;SDS011;6720;51.958;4.540;2022-11-09T12:45:33;5.43;;;2.63;;
13303;SDS011;6720;51.958;4.540;2022-11-09T12:47:40;7.57;;;2.10;;
13303;SDS011;6720;51.958;4.540;2022-11-09T12:50:11;6.53;;;2.30;;
13303;SDS011;6720;51.958;4.540;2022-11-09T12:52:39;6.27;;;2.30;;
13303;SDS011;6720;51.958;4.540;2022-11-09T12:55:06;10.23;;;2.63;;
13303;SDS011;6720;51.958;4.540;2022-11-09T12:57:38;5.43;;;2.03;;
13303;SDS011;6720;51.958;4.540;2022-11-09T13:00:13;5.67;;;2.20;;
13303;SDS011;6720;51.958;4.540;2022-11-09T13:03:02;5.73;;;2.40;;
13303;SDS011;6720;51.958;4.540;2022-11-09T13:08:00;7.00;;;2.23;;
13303;SDS011;6720;51.958;4.540;2022-11-09T13:10:30;6.90;;;2.27;;
13303;SDS011;6720;51.958;4.540;2022-11-09T13:13:20;5.30;;;2.10;;
13303;SDS011;6720;51.958;4.540;2022-11-09T13:16:08;4.93;;;2.30;;
13303;SDS011;6720;51.958;4.540;2022-11-09T13:23:44;6.23;;;2.10;;
13303;SDS011;6720;51.958;4.540;2022-11-09T13:26:54;6.87;;;2.70;;
13303;SDS011;6720;51.958;4.540;2022-11-09T13:34:56;6.30;;;2.33;;
13303;SDS011;6720;51.958;4.540;2022-11-09T13:50:57;5.93;;;2.00;;
13303;SDS011;6720;51.958;4.540;2022-11-09T13:56:11;8.20;;;2.10;;
13303;SDS011;6720;51.958;4.540;2022-11-09T13:58:39;6.80;;;2.43;;
13303;SDS011;6720;51.958;4.540;2022-11-09T14:01:23;9.33;;;2.70;;
13303;SDS011;6720;51.958;4.540;2022-11-09T14:03:49;7.07;;;2.40;;
13303;SDS011;6720;51.958;4.540;2022-11-09T14:06:15;4.70;;;1.83;;
13303;SDS011;6720;51.958;4.540;2022-11-09T14:08:42;5.30;;;2.30;;
13303;SDS011;6720;51.958;4.540;2022-11-09T14:17:01;9.50;;;2.60;;
13303;SDS011;6720;51.958;4.540;2022-11-09T14:22:17;7.83;;;2.33;;
13303;SDS011;6720;51.958;4.540;2022-11-09T14:24:43;6.63;;;2.40;;
13303;SDS011;6720;51.958;4.540;2022-11-09T14:29:36;6.30;;;2.10;;
13303;SDS011;6720;51.958;4.540;2022-11-09T14:34:42;7.73;;;2.37;;
13303;SDS011;6720;51.958;4.540;2022-11-09T14:37:07;8.47;;;2.77;;
13303;SDS011;6720;51.958;4.540;2022-11-09T14:39:32;10.67;;;2.50;;
13303;SDS011;6720;51.958;4.540;2022-11-09T14:41:58;4.43;;;2.00;;
13303;SDS011;6720;51.958;4.540;2022-11-09T14:44:26;9.23;;;2.40;;
13303;SDS011;6720;51.958;4.540;2022-11-09T14:46:59;12.93;;;2.60;;
13303;SDS011;6720;51.958;4.540;2022-11-09T14:49:25;7.30;;;2.20;;
13303;SDS011;6720;51.958;4.540;2022-11-09T14:51:51;7.47;;;2.30;;
13303;SDS011;6720;51.958;4.540;2022-11-09T14:54:18;8.97;;;2.40;;
13303;SDS011;6720;51.958;4.540;2022-11-09T14:56:48;6.57;;;2.10;;
13303;SDS011;6720;51.958;4.540;2022-11-09T14:59:15;7.07;;;1.90;;
13303;SDS011;6720;51.958;4.540;2022-11-09T15:01:55;7.00;;;2.47;;
13303;SDS011;6720;51.958;4.540;2022-11-09T15:04:22;6.20;;;2.10;;
13303;SDS011;6720;51.958;4.540;2022-11-09T15:06:49;5.80;;;1.80;;
13303;SDS011;6720;51.958;4.540;2022-11-09T15:09:21;9.30;;;2.13;;
13303;SDS011;6720;51.958;4.540;2022-11-09T15:11:49;3.67;;;1.73;;
13303;SDS011;6720;51.958;4.540;2022-11-09T15:16:41;7.97;;;2.10;;
13303;SDS011;6720;51.958;4.540;2022-11-09T15:19:23;5.47;;;1.90;;
13303;SDS011;6720;51.958;4.540;2022-11-09T15:21:56;4.70;;;2.03;;
13303;SDS011;6720;51.958;4.540;2022-11-09T15:24:23;6.77;;;2.13;;
13303;SDS011;6720;51.958;4.540;2022-11-09T15:26:50;6.40;;;1.80;;
13303;SDS011;6720;51.958;4.540;2022-11-09T15:29:24;8.27;;;2.20;;
13303;SDS011;6720;51.958;4.540;2022-11-09T15:34:37;4.20;;;1.87;;
13303;SDS011;6720;51.958;4.540;2022-11-09T15:37:18;5.07;;;1.80;;
13303;SDS011;6720;51.958;4.540;2022-11-09T15:39:54;5.33;;;1.63;;
13303;SDS011;6720;51.958;4.540;2022-11-09T15:42:20;8.10;;;2.10;;
13303;SDS011;6720;51.958;4.540;2022-11-09T15:44:49;6.67;;;1.60;;
13303;SDS011;6720;51.958;4.540;2022-11-09T15:47:21;6.67;;;1.70;;
13303;SDS011;6720;51.958;4.540;2022-11-09T15:49:55;5.40;;;2.30;;
13303;SDS011;6720;51.958;4.540;2022-11-09T15:52:21;4.47;;;2.47;;
13303;SDS011;6720;51.958;4.540;2022-11-09T15:54:46;5.00;;;1.93;;
13303;SDS011;6720;51.958;4.540;2022-11-09T15:57:13;5.17;;;2.23;;
13303;SDS011;6720;51.958;4.540;2022-11-09T15:59:43;8.97;;;2.33;;
13303;SDS011;6720;51.958;4.540;2022-11-09T16:02:09;8.00;;;2.30;;
13303;SDS011;6720;51.958;4.540;2022-11-09T16:04:35;7.60;;;2.67;;
13303;SDS011;6720;51.958;4.540;2022-11-09T16:07:01;6.73;;;2.33;;
13303;SDS011;6720;51.958;4.540;2022-11-09T16:09:26;5.70;;;2.20;;
13303;SDS011;6720;51.958;4.540;2022-11-09T16:11:51;10.67;;;2.30;;
13303;SDS011;6720;51.958;4.540;2022-11-09T16:14:17;8.60;;;2.67;;
13303;SDS011;6720;51.958;4.540;2022-11-09T16:16:44;8.80;;;2.30;;
13303;SDS011;6720;51.958;4.540;2022-11-09T16:19:10;8.07;;;2.63;;
13303;SDS011;6720;51.958;4.540;2022-11-09T16:21:37;8.80;;;2.20;;
13303;SDS011;6720;51.958;4.540;2022-11-09T16:24:03;6.77;;;2.47;;
13303;SDS011;6720;51.958;4.540;2022-11-09T16:26:28;6.50;;;2.30;;
13303;SDS011;6720;51.958;4.540;2022-11-09T16:28:54;6.13;;;1.83;;
13303;SDS011;6720;51.958;4.540;2022-11-09T16:31:19;6.10;;;2.27;;
13303;SDS011;6720;51.958;4.540;2022-11-09T16:33:45;7.33;;;2.67;;
13303;SDS011;6720;51.958;4.540;2022-11-09T16:36:13;10.70;;;2.27;;
13303;SDS011;6720;51.958;4.540;2022-11-09T16:38:42;13.43;;;3.07;;
13303;SDS011;6720;51.958;4.540;2022-11-09T16:41:09;9.47;;;3.03;;
13303;SDS011;6720;51.958;4.540;2022-11-09T16:43:36;10.17;;;2.33;;
13303;SDS011;6720;51.958;4.540;2022-11-09T16:46:02;8.90;;;2.70;;
13303;SDS011;6720;51.958;4.540;2022-11-09T16:48:30;6.80;;;2.20;;
13303;SDS011;6720;51.958;4.540;2022-11-09T16:50:57;4.37;;;2.20;;
13303;SDS011;6720;51.958;4.540;2022-11-09T16:53:23;7.17;;;2.40;;
13303;SDS011;6720;51.958;4.540;2022-11-09T16:55:48;8.37;;;2.27;;
13303;SDS011;6720;51.958;4.540;2022-11-09T16:58:14;4.83;;;2.20;;
13303;SDS011;6720;51.958;4.540;2022-11-09T17:00:46;6.77;;;2.10;;
13303;SDS011;6720;51.958;4.540;2022-11-09T17:03:13;5.43;;;1.90;;
13303;SDS011;6720;51.958;4.540;2022-11-09T17:05:39;9.77;;;2.60;;
13303;SDS011;6720;51.958;4.540;2022-11-09T17:08:05;8.63;;;2.93;;
13303;SDS011;6720;51.958;4.540;2022-11-09T17:10:31;6.20;;;2.93;;
13303;SDS011;6720;51.958;4.540;2022-11-09T17:12:57;6.73;;;3.20;;
13303;SDS011;6720;51.958;4.540;2022-11-09T17:15:22;9.93;;;3.70;;
13303;SDS011;6720;51.958;4.540;2022-11-09T17:17:47;6.03;;;2.50;;
13303;SDS011;6720;51.958;4.540;2022-11-09T17:20:13;8.00;;;2.70;;
13303;SDS011;6720;51.958;4.540;2022-11-09T17:22:39;5.53;;;3.00;;
13303;SDS011;6720;51.958;4.540;2022-11-09T17:25:05;11.10;;;3.30;;
13303;SDS011;6720;51.958;4.540;2022-11-09T17:27:31;11.97;;;3.53;;
13303;SDS011;6720;51.958;4.540;2022-11-09T17:29:56;8.03;;;3.00;;